sensor_id;sensor_type;location;lat;lon;timestamp;P1;durP1;ratioP1;P2;durP2;ratioP2
78298;SDS011;67556;55.656;12.590;2023-12-07T00:00:16;15.27;;;8.93;;
78298;SDS011;67556;55.656;12.590;2023-12-07T00:02:49;15.63;;;9.82;;
78298;SDS011;67556;55.656;12.590;2023-12-07T00:05:15;13.30;;;8.93;;
78298;SDS011;67556;55.656;12.590;2023-12-07T00:07:43;15.38;;;9.43;;
78298;SDS011;67556;55.656;12.590;2023-12-07T00:10:10;13.00;;;8.70;;
78298;SDS011;67556;55.656;12.590;2023-12-07T00:12:37;15.48;;;8.75;;
78298;SDS011;67556;55.656;12.590;2023-12-07T00:15:04;14.93;;;8.73;;
78298;SDS011;67556;55.656;12.590;2023-12-07T00:17:33;13.32;;;7.88;;
78298;SDS011;67556;55.656;12.590;2023-12-07T00:19:59;14.70;;;8.65;;
78298;SDS011;67556;55.656;12.590;2023-12-07T00:22:26;13.60;;;8.95;;
78298;SDS011;67556;55.656;12.590;2023-12-07T00:24:53;12.57;;;8.32;;
78298;SDS011;67556;55.656;12.590;2023-12-07T00:27:31;12.48;;;8.30;;
78298;SDS011;67556;55.656;12.590;2023-12-07T00:29:58;13.73;;;9.02;;
78298;SDS011;67556;55.656;12.590;2023-12-07T00:32:24;13.10;;;8.45;;
78298;SDS011;67556;55.656;12.590;2023-12-07T00:34:54;14.45;;;9.07;;
78298;SDS011;67556;55.656;12.590;2023-12-07T00:37:21;14.82;;;7.95;;
78298;SDS011;67556;55.656;12.590;2023-12-07T00:39:59;13.25;;;8.25;;
78298;SDS011;67556;55.656;12.590;2023-12-07T00:42:27;14.85;;;9.05;;
78298;SDS011;67556;55.656;12.590;2023-12-07T00:44:54;12.50;;;7.72;;
78298;SDS011;67556;55.656;12.590;2023-12-07T00:47:20;15.10;;;8.63;;
78298;SDS011;67556;55.656;12.590;2023-12-07T00:49:47;11.73;;;7.20;;
78298;SDS011;67556;55.656;12.590;2023-12-07T00:52:15;12.77;;;8.13;;
78298;SDS011;67556;55.656;12.590;2023-12-07T00:54:42;11.05;;;7.78;;
78298;SDS011;67556;55.656;12.590;2023-12-07T00:57:09;12.73;;;7.75;;
78298;SDS011;67556;55.656;12.590;2023-12-07T00:59:36;11.80;;;7.25;;
78298;SDS011;67556;55.656;12.590;2023-12-07T01:02:03;11.93;;;7.50;;
78298;SDS011;67556;55.656;12.590;2023-12-07T01:04:31;12.10;;;7.95;;
78298;SDS011;67556;55.656;12.590;2023-12-07T01:06:58;12.32;;;7.68;;
78298;SDS011;67556;55.656;12.590;2023-12-07T01:09:27;12.45;;;8.32;;
78298;SDS011;67556;55.656;12.590;2023-12-07T01:11:53;11.68;;;8.10;;
78298;SDS011;67556;55.656;12.590;2023-12-07T01:14:20;12.25;;;8.10;;
78298;SDS011;67556;55.656;12.590;2023-12-07T01:16:48;11.30;;;7.63;;
78298;SDS011;67556;55.656;12.590;2023-12-07T01:19:16;10.15;;;7.53;;
78298;SDS011;67556;55.656;12.590;2023-12-07T01:21:42;10.93;;;7.38;;
78298;SDS011;67556;55.656;12.590;2023-12-07T01:24:10;11.80;;;6.68;;
78298;SDS011;67556;55.656;12.590;2023-12-07T01:26:39;9.93;;;7.60;;
78298;SDS011;67556;55.656;12.590;2023-12-07T01:29:05;11.85;;;7.60;;
78298;SDS011;67556;55.656;12.590;2023-12-07T01:31:32;12.07;;;7.20;;
78298;SDS011;67556;55.656;12.590;2023-12-07T01:34:00;9.23;;;6.43;;
78298;SDS011;67556;55.656;12.590;2023-12-07T01:36:28;11.95;;;7.57;;
78298;SDS011;67556;55.656;12.590;2023-12-07T01:38:57;11.90;;;7.80;;
78298;SDS011;67556;55.656;12.590;2023-12-07T01:41:24;11.52;;;7.32;;
78298;SDS011;67556;55.656;12.590;2023-12-07T01:43:53;10.32;;;6.95;;
78298;SDS011;67556;55.656;12.590;2023-12-07T01:46:19;10.95;;;7.18;;
78298;SDS011;67556;55.656;12.590;2023-12-07T01:48:46;11.07;;;6.65;;
78298;SDS011;67556;55.656;12.590;2023-12-07T01:51:15;10.68;;;6.93;;
78298;SDS011;67556;55.656;12.590;2023-12-07T01:53:43;10.55;;;6.97;;
78298;SDS011;67556;55.656;12.590;2023-12-07T01:56:10;11.68;;;7.05;;
78298;SDS011;67556;55.656;12.590;2023-12-07T01:58:37;10.60;;;6.63;;
78298;SDS011;67556;55.656;12.590;2023-12-07T02:01:06;11.43;;;7.30;;
78298;SDS011;67556;55.656;12.590;2023-12-07T02:03:34;12.50;;;7.25;;
78298;SDS011;67556;55.656;12.590;2023-12-07T02:06:01;9.88;;;6.47;;
78298;SDS011;67556;55.656;12.590;2023-12-07T02:08:28;11.15;;;7.07;;
78298;SDS011;67556;55.656;12.590;2023-12-07T02:10:57;11.00;;;7.13;;
78298;SDS011;67556;55.656;12.590;2023-12-07T02:13:24;11.30;;;6.82;;
78298;SDS011;67556;55.656;12.590;2023-12-07T02:15:54;10.13;;;6.25;;
78298;SDS011;67556;55.656;12.590;2023-12-07T02:18:26;8.43;;;6.07;;
78298;SDS011;67556;55.656;12.590;2023-12-07T02:20:58;10.98;;;6.55;;
78298;SDS011;67556;55.656;12.590;2023-12-07T02:23:28;10.75;;;6.50;;
78298;SDS011;67556;55.656;12.590;2023-12-07T02:25:55;9.15;;;6.25;;
78298;SDS011;67556;55.656;12.590;2023-12-07T02:28:28;12.27;;;7.05;;
78298;SDS011;67556;55.656;12.590;2023-12-07T02:30:56;10.73;;;7.15;;
78298;SDS011;67556;55.656;12.590;2023-12-07T02:33:22;10.45;;;6.85;;
78298;SDS011;67556;55.656;12.590;2023-12-07T02:35:51;10.00;;;7.05;;
78298;SDS011;67556;55.656;12.590;2023-12-07T02:38:28;10.65;;;6.72;;
78298;SDS011;67556;55.656;12.590;2023-12-07T02:40:55;10.57;;;6.60;;
78298;SDS011;67556;55.656;12.590;2023-12-07T02:43:22;10.05;;;6.35;;
78298;SDS011;67556;55.656;12.590;2023-12-07T02:45:51;9.52;;;6.18;;
78298;SDS011;67556;55.656;12.590;2023-12-07T02:48:20;10.75;;;6.93;;
78298;SDS011;67556;55.656;12.590;2023-12-07T02:51:08;8.57;;;6.65;;
78298;SDS011;67556;55.656;12.590;2023-12-07T02:53:37;8.10;;;5.93;;
78298;SDS011;67556;55.656;12.590;2023-12-07T02:56:25;8.70;;;5.88;;
78298;SDS011;67556;55.656;12.590;2023-12-07T02:59:04;9.07;;;6.20;;
78298;SDS011;67556;55.656;12.590;2023-12-07T03:01:40;10.15;;;6.00;;
78298;SDS011;67556;55.656;12.590;2023-12-07T03:04:07;9.82;;;6.40;;
78298;SDS011;67556;55.656;12.590;2023-12-07T03:06:39;8.63;;;5.65;;
78298;SDS011;67556;55.656;12.590;2023-12-07T03:09:17;8.85;;;5.70;;
78298;SDS011;67556;55.656;12.590;2023-12-07T03:11:44;8.50;;;6.25;;
78298;SDS011;67556;55.656;12.590;2023-12-07T03:14:11;8.25;;;5.88;;
78298;SDS011;67556;55.656;12.590;2023-12-07T03:16:39;10.13;;;5.97;;
78298;SDS011;67556;55.656;12.590;2023-12-07T03:19:12;8.70;;;6.03;;
78298;SDS011;67556;55.656;12.590;2023-12-07T03:21:45;9.27;;;6.18;;
78298;SDS011;67556;55.656;12.590;2023-12-07T03:24:18;8.90;;;5.78;;
78298;SDS011;67556;55.656;12.590;2023-12-07T03:26:45;9.77;;;6.18;;
78298;SDS011;67556;55.656;12.590;2023-12-07T03:29:17;9.38;;;5.68;;
78298;SDS011;67556;55.656;12.590;2023-12-07T03:31:51;9.43;;;5.63;;
78298;SDS011;67556;55.656;12.590;2023-12-07T03:34:20;9.55;;;6.32;;
78298;SDS011;67556;55.656;12.590;2023-12-07T03:36:48;8.90;;;6.03;;
78298;SDS011;67556;55.656;12.590;2023-12-07T03:39:16;10.60;;;6.03;;
78298;SDS011;67556;55.656;12.590;2023-12-07T03:41:44;9.70;;;6.47;;
78298;SDS011;67556;55.656;12.590;2023-12-07T03:44:12;9.45;;;6.53;;
78298;SDS011;67556;55.656;12.590;2023-12-07T03:46:43;11.43;;;5.97;;
78298;SDS011;67556;55.656;12.590;2023-12-07T03:49:13;11.38;;;6.40;;
78298;SDS011;67556;55.656;12.590;2023-12-07T03:51:39;9.38;;;6.07;;
78298;SDS011;67556;55.656;12.590;2023-12-07T03:54:09;10.35;;;6.50;;
78298;SDS011;67556;55.656;12.590;2023-12-07T03:56:41;9.07;;;6.38;;
78298;SDS011;67556;55.656;12.590;2023-12-07T03:59:08;9.50;;;6.53;;
78298;SDS011;67556;55.656;12.590;2023-12-07T04:01:41;10.43;;;6.57;;
78298;SDS011;67556;55.656;12.590;2023-12-07T04:04:21;11.18;;;6.53;;
78298;SDS011;67556;55.656;12.590;2023-12-07T04:06:49;11.43;;;6.85;;
78298;SDS011;67556;55.656;12.590;2023-12-07T04:09:15;10.48;;;6.55;;
78298;SDS011;67556;55.656;12.590;2023-12-07T04:11:42;10.88;;;6.55;;
78298;SDS011;67556;55.656;12.590;2023-12-07T04:14:11;10.70;;;6.82;;
78298;SDS011;67556;55.656;12.590;2023-12-07T04:16:40;11.02;;;6.78;;
78298;SDS011;67556;55.656;12.590;2023-12-07T04:19:09;11.43;;;6.75;;
78298;SDS011;67556;55.656;12.590;2023-12-07T04:21:39;10.77;;;7.40;;
78298;SDS011;67556;55.656;12.590;2023-12-07T04:24:06;10.32;;;6.97;;
78298;SDS011;67556;55.656;12.590;2023-12-07T04:26:35;9.57;;;6.82;;
78298;SDS011;67556;55.656;12.590;2023-12-07T04:29:01;11.35;;;6.82;;
78298;SDS011;67556;55.656;12.590;2023-12-07T04:31:28;11.43;;;6.93;;
78298;SDS011;67556;55.656;12.590;2023-12-07T04:33:56;11.23;;;6.88;;
78298;SDS011;67556;55.656;12.590;2023-12-07T04:36:22;10.00;;;6.90;;
78298;SDS011;67556;55.656;12.590;2023-12-07T04:38:51;10.57;;;7.10;;
78298;SDS011;67556;55.656;12.590;2023-12-07T04:41:18;10.10;;;6.80;;
78298;SDS011;67556;55.656;12.590;2023-12-07T04:43:46;10.63;;;7.13;;
78298;SDS011;67556;55.656;12.590;2023-12-07T04:46:28;10.88;;;6.97;;
78298;SDS011;67556;55.656;12.590;2023-12-07T04:48:54;10.25;;;6.78;;
78298;SDS011;67556;55.656;12.590;2023-12-07T04:51:21;11.40;;;7.30;;
78298;SDS011;67556;55.656;12.590;2023-12-07T04:53:50;9.20;;;6.60;;
78298;SDS011;67556;55.656;12.590;2023-12-07T04:56:19;10.13;;;6.72;;
78298;SDS011;67556;55.656;12.590;2023-12-07T04:58:47;10.98;;;6.85;;
78298;SDS011;67556;55.656;12.590;2023-12-07T05:01:14;10.82;;;6.57;;
78298;SDS011;67556;55.656;12.590;2023-12-07T05:03:44;9.40;;;6.50;;
78298;SDS011;67556;55.656;12.590;2023-12-07T05:06:12;9.60;;;6.72;;
78298;SDS011;67556;55.656;12.590;2023-12-07T05:08:40;10.90;;;7.13;;
78298;SDS011;67556;55.656;12.590;2023-12-07T05:11:12;10.45;;;7.03;;
78298;SDS011;67556;55.656;12.590;2023-12-07T05:13:38;10.93;;;7.07;;
78298;SDS011;67556;55.656;12.590;2023-12-07T05:16:06;10.35;;;7.20;;
78298;SDS011;67556;55.656;12.590;2023-12-07T05:18:33;12.15;;;6.82;;
78298;SDS011;67556;55.656;12.590;2023-12-07T05:21:02;10.98;;;7.47;;
78298;SDS011;67556;55.656;12.590;2023-12-07T05:23:30;11.38;;;7.18;;
78298;SDS011;67556;55.656;12.590;2023-12-07T05:25:57;10.90;;;7.18;;
78298;SDS011;67556;55.656;12.590;2023-12-07T05:28:27;9.63;;;6.97;;
78298;SDS011;67556;55.656;12.590;2023-12-07T05:30:54;9.48;;;6.40;;
78298;SDS011;67556;55.656;12.590;2023-12-07T05:33:22;9.35;;;6.22;;
78298;SDS011;67556;55.656;12.590;2023-12-07T05:35:50;10.10;;;6.30;;
78298;SDS011;67556;55.656;12.590;2023-12-07T05:38:24;10.68;;;6.55;;
78298;SDS011;67556;55.656;12.590;2023-12-07T05:40:51;10.13;;;6.70;;
78298;SDS011;67556;55.656;12.590;2023-12-07T05:43:38;9.07;;;6.68;;
78298;SDS011;67556;55.656;12.590;2023-12-07T05:46:12;9.95;;;6.57;;
78298;SDS011;67556;55.656;12.590;2023-12-07T05:48:39;11.23;;;7.18;;
78298;SDS011;67556;55.656;12.590;2023-12-07T05:51:24;11.70;;;7.05;;
78298;SDS011;67556;55.656;12.590;2023-12-07T05:53:53;11.90;;;7.47;;
78298;SDS011;67556;55.656;12.590;2023-12-07T05:56:25;12.45;;;8.25;;
78298;SDS011;67556;55.656;12.590;2023-12-07T05:58:55;12.40;;;7.55;;
78298;SDS011;67556;55.656;12.590;2023-12-07T06:01:22;11.57;;;7.57;;
78298;SDS011;67556;55.656;12.590;2023-12-07T06:03:49;13.90;;;8.55;;
78298;SDS011;67556;55.656;12.590;2023-12-07T06:06:16;13.85;;;8.10;;
78298;SDS011;67556;55.656;12.590;2023-12-07T06:08:50;11.63;;;7.45;;
78298;SDS011;67556;55.656;12.590;2023-12-07T06:11:18;13.35;;;7.85;;
78298;SDS011;67556;55.656;12.590;2023-12-07T06:13:45;14.05;;;8.77;;
78298;SDS011;67556;55.656;12.590;2023-12-07T06:16:17;13.05;;;7.53;;
78298;SDS011;67556;55.656;12.590;2023-12-07T06:18:44;15.23;;;8.20;;
78298;SDS011;67556;55.656;12.590;2023-12-07T06:21:11;11.80;;;7.85;;
78298;SDS011;67556;55.656;12.590;2023-12-07T06:23:45;13.02;;;8.43;;
78298;SDS011;67556;55.656;12.590;2023-12-07T06:26:14;12.88;;;7.80;;
78298;SDS011;67556;55.656;12.590;2023-12-07T06:28:41;13.75;;;7.88;;
78298;SDS011;67556;55.656;12.590;2023-12-07T06:31:09;12.60;;;8.13;;
78298;SDS011;67556;55.656;12.590;2023-12-07T06:33:37;13.50;;;7.90;;
78298;SDS011;67556;55.656;12.590;2023-12-07T06:36:04;14.75;;;9.15;;
78298;SDS011;67556;55.656;12.590;2023-12-07T06:38:32;14.15;;;8.90;;
78298;SDS011;67556;55.656;12.590;2023-12-07T06:40:59;13.30;;;8.25;;
78298;SDS011;67556;55.656;12.590;2023-12-07T06:43:26;13.27;;;8.80;;
78298;SDS011;67556;55.656;12.590;2023-12-07T06:45:53;15.70;;;9.13;;
78298;SDS011;67556;55.656;12.590;2023-12-07T06:48:19;16.25;;;9.38;;
78298;SDS011;67556;55.656;12.590;2023-12-07T06:50:48;12.82;;;7.97;;
78298;SDS011;67556;55.656;12.590;2023-12-07T06:53:16;15.57;;;9.18;;
78298;SDS011;67556;55.656;12.590;2023-12-07T06:55:43;13.32;;;8.38;;
78298;SDS011;67556;55.656;12.590;2023-12-07T06:58:10;14.98;;;9.45;;
78298;SDS011;67556;55.656;12.590;2023-12-07T07:00:43;13.82;;;8.77;;
78298;SDS011;67556;55.656;12.590;2023-12-07T07:03:11;14.60;;;9.18;;
78298;SDS011;67556;55.656;12.590;2023-12-07T07:05:40;16.30;;;9.95;;
78298;SDS011;67556;55.656;12.590;2023-12-07T07:08:08;16.55;;;9.70;;
78298;SDS011;67556;55.656;12.590;2023-12-07T07:10:36;16.88;;;9.77;;
78298;SDS011;67556;55.656;12.590;2023-12-07T07:13:05;14.77;;;8.75;;
78298;SDS011;67556;55.656;12.590;2023-12-07T07:15:32;16.58;;;10.23;;
78298;SDS011;67556;55.656;12.590;2023-12-07T07:18:18;16.27;;;9.10;;
78298;SDS011;67556;55.656;12.590;2023-12-07T07:20:45;15.32;;;9.43;;
78298;SDS011;67556;55.656;12.590;2023-12-07T07:23:14;17.95;;;11.45;;
78298;SDS011;67556;55.656;12.590;2023-12-07T07:25:48;17.35;;;10.50;;
78298;SDS011;67556;55.656;12.590;2023-12-07T07:28:16;17.27;;;10.30;;
78298;SDS011;67556;55.656;12.590;2023-12-07T07:30:44;17.02;;;10.15;;
78298;SDS011;67556;55.656;12.590;2023-12-07T07:33:11;16.88;;;9.35;;
78298;SDS011;67556;55.656;12.590;2023-12-07T07:35:38;18.42;;;10.13;;
78298;SDS011;67556;55.656;12.590;2023-12-07T07:38:05;15.98;;;9.13;;
78298;SDS011;67556;55.656;12.590;2023-12-07T07:40:33;17.02;;;9.65;;
78298;SDS011;67556;55.656;12.590;2023-12-07T07:43:01;16.60;;;9.82;;
78298;SDS011;67556;55.656;12.590;2023-12-07T07:45:29;17.10;;;9.90;;
78298;SDS011;67556;55.656;12.590;2023-12-07T07:47:56;15.82;;;9.63;;
78298;SDS011;67556;55.656;12.590;2023-12-07T07:50:25;17.27;;;9.82;;
78298;SDS011;67556;55.656;12.590;2023-12-07T07:52:54;17.65;;;10.10;;
78298;SDS011;67556;55.656;12.590;2023-12-07T07:55:21;17.35;;;9.90;;
78298;SDS011;67556;55.656;12.590;2023-12-07T07:57:58;17.67;;;9.68;;
78298;SDS011;67556;55.656;12.590;2023-12-07T08:00:25;17.38;;;9.77;;
78298;SDS011;67556;55.656;12.590;2023-12-07T08:02:59;16.50;;;10.32;;
78298;SDS011;67556;55.656;12.590;2023-12-07T08:05:26;16.08;;;9.57;;
78298;SDS011;67556;55.656;12.590;2023-12-07T08:07:55;18.33;;;9.68;;
78298;SDS011;67556;55.656;12.590;2023-12-07T08:13:02;18.10;;;9.90;;
78298;SDS011;67556;55.656;12.590;2023-12-07T08:15:30;18.70;;;10.10;;
78298;SDS011;67556;55.656;12.590;2023-12-07T08:17:57;18.85;;;11.85;;
78298;SDS011;67556;55.656;12.590;2023-12-07T08:20:27;19.45;;;10.52;;
78298;SDS011;67556;55.656;12.590;2023-12-07T08:22:54;18.85;;;11.57;;
78298;SDS011;67556;55.656;12.590;2023-12-07T08:25:22;19.58;;;11.20;;
78298;SDS011;67556;55.656;12.590;2023-12-07T08:27:49;18.33;;;10.63;;
78298;SDS011;67556;55.656;12.590;2023-12-07T08:30:25;21.05;;;11.13;;
78298;SDS011;67556;55.656;12.590;2023-12-07T08:33:04;19.75;;;12.00;;
78298;SDS011;67556;55.656;12.590;2023-12-07T08:35:30;19.35;;;11.43;;
78298;SDS011;67556;55.656;12.590;2023-12-07T08:37:58;18.67;;;10.70;;
78298;SDS011;67556;55.656;12.590;2023-12-07T08:40:27;22.50;;;11.35;;
78298;SDS011;67556;55.656;12.590;2023-12-07T08:42:54;19.35;;;11.88;;
78298;SDS011;67556;55.656;12.590;2023-12-07T08:45:25;19.48;;;12.05;;
78298;SDS011;67556;55.656;12.590;2023-12-07T08:47:57;22.60;;;12.60;;
78298;SDS011;67556;55.656;12.590;2023-12-07T08:50:24;21.58;;;12.30;;
78298;SDS011;67556;55.656;12.590;2023-12-07T08:52:51;21.73;;;11.27;;
78298;SDS011;67556;55.656;12.590;2023-12-07T08:55:18;19.00;;;11.40;;
78298;SDS011;67556;55.656;12.590;2023-12-07T08:57:59;18.42;;;11.07;;
78298;SDS011;67556;55.656;12.590;2023-12-07T09:00:30;21.05;;;11.88;;
78298;SDS011;67556;55.656;12.590;2023-12-07T09:02:57;22.60;;;11.98;;
78298;SDS011;67556;55.656;12.590;2023-12-07T09:05:27;22.92;;;12.45;;
78298;SDS011;67556;55.656;12.590;2023-12-07T09:08:13;21.77;;;11.93;;
78298;SDS011;67556;55.656;12.590;2023-12-07T09:10:53;18.35;;;11.27;;
78298;SDS011;67556;55.656;12.590;2023-12-07T09:13:20;18.92;;;11.23;;
78298;SDS011;67556;55.656;12.590;2023-12-07T09:15:49;22.65;;;12.60;;
78298;SDS011;67556;55.656;12.590;2023-12-07T09:18:16;20.02;;;12.32;;
78298;SDS011;67556;55.656;12.590;2023-12-07T09:20:43;18.45;;;11.57;;
78298;SDS011;67556;55.656;12.590;2023-12-07T09:23:12;19.55;;;11.23;;
78298;SDS011;67556;55.656;12.590;2023-12-07T09:25:43;17.20;;;11.43;;
78298;SDS011;67556;55.656;12.590;2023-12-07T09:28:12;21.85;;;11.45;;
78298;SDS011;67556;55.656;12.590;2023-12-07T09:30:39;19.77;;;11.25;;
78298;SDS011;67556;55.656;12.590;2023-12-07T09:33:07;19.35;;;11.18;;
78298;SDS011;67556;55.656;12.590;2023-12-07T09:35:47;21.20;;;11.05;;
78298;SDS011;67556;55.656;12.590;2023-12-07T09:38:26;18.75;;;11.55;;
78298;SDS011;67556;55.656;12.590;2023-12-07T09:40:53;18.90;;;11.13;;
78298;SDS011;67556;55.656;12.590;2023-12-07T09:43:27;19.90;;;11.82;;
78298;SDS011;67556;55.656;12.590;2023-12-07T09:46:12;20.98;;;11.77;;
78298;SDS011;67556;55.656;12.590;2023-12-07T09:48:43;19.25;;;11.10;;
78298;SDS011;67556;55.656;12.590;2023-12-07T09:51:14;20.27;;;11.73;;
78298;SDS011;67556;55.656;12.590;2023-12-07T09:53:47;18.88;;;11.05;;
78298;SDS011;67556;55.656;12.590;2023-12-07T09:56:23;17.92;;;10.45;;
78298;SDS011;67556;55.656;12.590;2023-12-07T09:58:50;22.25;;;11.32;;
78298;SDS011;67556;55.656;12.590;2023-12-07T10:01:18;20.38;;;11.75;;
78298;SDS011;67556;55.656;12.590;2023-12-07T10:03:52;20.90;;;11.25;;
78298;SDS011;67556;55.656;12.590;2023-12-07T10:06:42;22.38;;;12.15;;
78298;SDS011;67556;55.656;12.590;2023-12-07T10:09:14;21.63;;;11.50;;
78298;SDS011;67556;55.656;12.590;2023-12-07T10:11:49;22.50;;;12.02;;
78298;SDS011;67556;55.656;12.590;2023-12-07T10:14:17;21.85;;;12.18;;
78298;SDS011;67556;55.656;12.590;2023-12-07T10:16:52;21.75;;;11.73;;
78298;SDS011;67556;55.656;12.590;2023-12-07T10:19:39;21.75;;;12.57;;
78298;SDS011;67556;55.656;12.590;2023-12-07T10:22:16;21.30;;;11.90;;
78298;SDS011;67556;55.656;12.590;2023-12-07T10:24:43;21.48;;;11.75;;
78298;SDS011;67556;55.656;12.590;2023-12-07T10:27:10;18.20;;;10.88;;
78298;SDS011;67556;55.656;12.590;2023-12-07T10:29:48;20.38;;;11.77;;
78298;SDS011;67556;55.656;12.590;2023-12-07T10:32:16;20.10;;;12.50;;
78298;SDS011;67556;55.656;12.590;2023-12-07T10:34:46;20.17;;;12.00;;
78298;SDS011;67556;55.656;12.590;2023-12-07T10:37:15;21.77;;;13.20;;
78298;SDS011;67556;55.656;12.590;2023-12-07T10:39:56;21.40;;;12.23;;
78298;SDS011;67556;55.656;12.590;2023-12-07T10:42:42;19.38;;;12.63;;
78298;SDS011;67556;55.656;12.590;2023-12-07T10:45:28;20.92;;;11.80;;
78298;SDS011;67556;55.656;12.590;2023-12-07T10:48:05;18.00;;;11.40;;
78298;SDS011;67556;55.656;12.590;2023-12-07T10:50:46;20.52;;;12.27;;
78298;SDS011;67556;55.656;12.590;2023-12-07T10:53:15;19.88;;;12.05;;
78298;SDS011;67556;55.656;12.590;2023-12-07T10:55:53;22.40;;;11.85;;
78298;SDS011;67556;55.656;12.590;2023-12-07T10:58:22;24.27;;;12.68;;
78298;SDS011;67556;55.656;12.590;2023-12-07T11:00:51;24.42;;;13.27;;
78298;SDS011;67556;55.656;12.590;2023-12-07T11:03:25;21.33;;;11.60;;
78298;SDS011;67556;55.656;12.590;2023-12-07T11:06:18;20.15;;;12.00;;
78298;SDS011;67556;55.656;12.590;2023-12-07T11:08:47;22.27;;;11.63;;
78298;SDS011;67556;55.656;12.590;2023-12-07T11:11:24;24.15;;;13.00;;
78298;SDS011;67556;55.656;12.590;2023-12-07T11:13:57;20.17;;;12.35;;
78298;SDS011;67556;55.656;12.590;2023-12-07T11:16:30;22.27;;;11.88;;
78298;SDS011;67556;55.656;12.590;2023-12-07T11:22:11;21.95;;;12.57;;
78298;SDS011;67556;55.656;12.590;2023-12-07T11:24:54;21.65;;;12.25;;
78298;SDS011;67556;55.656;12.590;2023-12-07T11:27:23;26.85;;;13.15;;
78298;SDS011;67556;55.656;12.590;2023-12-07T11:29:59;23.25;;;12.65;;
78298;SDS011;67556;55.656;12.590;2023-12-07T11:32:26;22.63;;;12.55;;
78298;SDS011;67556;55.656;12.590;2023-12-07T11:35:12;23.33;;;12.95;;
78298;SDS011;67556;55.656;12.590;2023-12-07T11:40:41;24.88;;;13.52;;
78298;SDS011;67556;55.656;12.590;2023-12-07T11:43:16;24.33;;;14.57;;
78298;SDS011;67556;55.656;12.590;2023-12-07T11:46:00;23.95;;;12.88;;
78298;SDS011;67556;55.656;12.590;2023-12-07T11:48:39;26.25;;;14.73;;
78298;SDS011;67556;55.656;12.590;2023-12-07T11:51:23;26.05;;;13.85;;
78298;SDS011;67556;55.656;12.590;2023-12-07T11:54:09;23.98;;;13.13;;
78298;SDS011;67556;55.656;12.590;2023-12-07T11:56:56;22.08;;;13.20;;
78298;SDS011;67556;55.656;12.590;2023-12-07T11:59:24;23.42;;;12.38;;
78298;SDS011;67556;55.656;12.590;2023-12-07T12:01:51;24.67;;;13.63;;
78298;SDS011;67556;55.656;12.590;2023-12-07T12:04:18;27.52;;;14.25;;
78298;SDS011;67556;55.656;12.590;2023-12-07T12:06:45;26.40;;;14.63;;
78298;SDS011;67556;55.656;12.590;2023-12-07T12:09:12;23.67;;;13.93;;
78298;SDS011;67556;55.656;12.590;2023-12-07T12:11:44;24.52;;;13.70;;
78298;SDS011;67556;55.656;12.590;2023-12-07T12:14:17;24.85;;;13.27;;
78298;SDS011;67556;55.656;12.590;2023-12-07T12:17:03;23.67;;;13.52;;
78298;SDS011;67556;55.656;12.590;2023-12-07T12:19:30;22.45;;;12.68;;
78298;SDS011;67556;55.656;12.590;2023-12-07T12:22:14;22.95;;;13.38;;
78298;SDS011;67556;55.656;12.590;2023-12-07T12:25:00;24.92;;;13.57;;
78298;SDS011;67556;55.656;12.590;2023-12-07T12:27:29;23.40;;;12.93;;
78298;SDS011;67556;55.656;12.590;2023-12-07T12:29:58;26.35;;;13.27;;
78298;SDS011;67556;55.656;12.590;2023-12-07T12:32:28;28.85;;;14.27;;
78298;SDS011;67556;55.656;12.590;2023-12-07T12:35:11;23.25;;;13.10;;
78298;SDS011;67556;55.656;12.590;2023-12-07T12:37:56;27.55;;;12.90;;
78298;SDS011;67556;55.656;12.590;2023-12-07T12:40:41;24.70;;;12.98;;
78298;SDS011;67556;55.656;12.590;2023-12-07T12:43:26;28.33;;;14.65;;
78298;SDS011;67556;55.656;12.590;2023-12-07T12:45:55;27.95;;;13.48;;
78298;SDS011;67556;55.656;12.590;2023-12-07T12:48:54;26.02;;;13.50;;
78298;SDS011;67556;55.656;12.590;2023-12-07T12:51:28;24.35;;;13.07;;
78298;SDS011;67556;55.656;12.590;2023-12-07T12:53:58;25.83;;;13.32;;
78298;SDS011;67556;55.656;12.590;2023-12-07T12:56:31;30.90;;;15.25;;
78298;SDS011;67556;55.656;12.590;2023-12-07T12:59:09;27.70;;;14.98;;
78298;SDS011;67556;55.656;12.590;2023-12-07T13:01:51;28.95;;;13.82;;
78298;SDS011;67556;55.656;12.590;2023-12-07T13:04:20;25.88;;;14.07;;
78298;SDS011;67556;55.656;12.590;2023-12-07T13:06:54;27.23;;;14.75;;
78298;SDS011;67556;55.656;12.590;2023-12-07T13:09:34;29.98;;;15.00;;
78298;SDS011;67556;55.656;12.590;2023-12-07T13:12:01;28.13;;;14.50;;
78298;SDS011;67556;55.656;12.590;2023-12-07T13:14:29;26.80;;;14.25;;
78298;SDS011;67556;55.656;12.590;2023-12-07T13:17:01;31.50;;;15.02;;
78298;SDS011;67556;55.656;12.590;2023-12-07T13:19:29;28.65;;;14.75;;
78298;SDS011;67556;55.656;12.590;2023-12-07T13:22:15;30.95;;;15.32;;
78298;SDS011;67556;55.656;12.590;2023-12-07T13:24:42;25.05;;;13.75;;
78298;SDS011;67556;55.656;12.590;2023-12-07T13:27:17;24.40;;;15.13;;
78298;SDS011;67556;55.656;12.590;2023-12-07T13:30:09;27.60;;;13.90;;
78298;SDS011;67556;55.656;12.590;2023-12-07T13:32:41;28.67;;;15.25;;
78298;SDS011;67556;55.656;12.590;2023-12-07T13:35:10;31.80;;;13.90;;
78298;SDS011;67556;55.656;12.590;2023-12-07T13:37:50;26.50;;;14.93;;
78298;SDS011;67556;55.656;12.590;2023-12-07T13:40:32;26.83;;;14.18;;
78298;SDS011;67556;55.656;12.590;2023-12-07T13:43:17;29.80;;;15.45;;
78298;SDS011;67556;55.656;12.590;2023-12-07T13:45:45;33.53;;;17.05;;
78298;SDS011;67556;55.656;12.590;2023-12-07T13:48:18;30.38;;;15.30;;
78298;SDS011;67556;55.656;12.590;2023-12-07T13:50:45;26.88;;;15.02;;
78298;SDS011;67556;55.656;12.590;2023-12-07T13:53:12;29.77;;;15.77;;
78298;SDS011;67556;55.656;12.590;2023-12-07T13:55:46;29.08;;;14.70;;
78298;SDS011;67556;55.656;12.590;2023-12-07T13:58:29;29.05;;;15.73;;
78298;SDS011;67556;55.656;12.590;2023-12-07T14:01:09;28.90;;;15.75;;
78298;SDS011;67556;55.656;12.590;2023-12-07T14:03:37;36.08;;;19.58;;
78298;SDS011;67556;55.656;12.590;2023-12-07T14:06:04;39.30;;;22.48;;
78298;SDS011;67556;55.656;12.590;2023-12-07T14:08:50;56.22;;;25.95;;
78298;SDS011;67556;55.656;12.590;2023-12-07T14:11:16;48.03;;;23.13;;
78298;SDS011;67556;55.656;12.590;2023-12-07T14:13:43;54.30;;;28.48;;
78298;SDS011;67556;55.656;12.590;2023-12-07T14:16:13;67.20;;;29.52;;
78298;SDS011;67556;55.656;12.590;2023-12-07T14:19:00;84.35;;;40.25;;
78298;SDS011;67556;55.656;12.590;2023-12-07T14:21:38;99.90;;;46.00;;
78298;SDS011;67556;55.656;12.590;2023-12-07T14:24:09;38.75;;;20.33;;
78298;SDS011;67556;55.656;12.590;2023-12-07T14:26:36;33.15;;;18.13;;
78298;SDS011;67556;55.656;12.590;2023-12-07T14:29:09;31.60;;;16.17;;
78298;SDS011;67556;55.656;12.590;2023-12-07T14:31:42;29.85;;;16.05;;
78298;SDS011;67556;55.656;12.590;2023-12-07T14:34:19;26.60;;;14.70;;
78298;SDS011;67556;55.656;12.590;2023-12-07T14:37:01;32.03;;;16.98;;
78298;SDS011;67556;55.656;12.590;2023-12-07T14:39:34;31.23;;;17.65;;
78298;SDS011;67556;55.656;12.590;2023-12-07T14:42:03;32.17;;;17.40;;
78298;SDS011;67556;55.656;12.590;2023-12-07T14:44:31;31.00;;;16.50;;
78298;SDS011;67556;55.656;12.590;2023-12-07T14:46:58;30.17;;;15.75;;